createdAt,value
2018-01-27T00:00:11.773Z,47.67
2018-01-27T00:02:39.523Z,45.05
2018-01-27T00:05:08.110Z,44.15
2018-01-27T00:07:35.860Z,47.40
2018-01-27T00:10:03.615Z,45.65
2018-01-27T00:12:31.414Z,44.42
2018-01-27T00:14:59.166Z,47.05
2018-01-27T00:17:26.924Z,43.87
2018-01-27T00:19:54.743Z,45.35
2018-01-27T00:22:22.490Z,44.13
2018-01-27T00:24:51.010Z,42.75
2018-01-27T00:27:18.822Z,46.60
2018-01-27T00:29:47.338Z,44.78
2018-01-27T00:32:15.092Z,46.65
2018-01-27T00:34:42.894Z,46.45
2018-01-27T00:37:10.642Z,42.45
2018-01-27T00:39:38.405Z,45.42
2018-01-27T00:42:06.216Z,42.33
2018-01-27T00:44:34.762Z,45.83
2018-01-27T00:47:02.512Z,40.92
2018-01-27T00:49:30.315Z,44.83
2018-01-27T00:51:58.827Z,38.45
2018-01-27T00:54:26.575Z,43.08
2018-01-27T00:56:54.378Z,41.35
2018-01-27T00:59:22.130Z,44.65
2018-01-27T01:01:49.883Z,45.22
2018-01-27T01:04:17.690Z,41.00
2018-01-27T01:06:45.434Z,43.45
2018-01-27T01:09:13.182Z,41.35
2018-01-27T01:11:40.986Z,43.25
2018-01-27T01:14:09.502Z,41.13
2018-01-27T01:16:37.261Z,41.78
2018-01-27T01:19:05.062Z,43.78
2018-01-27T01:21:32.807Z,41.47
2018-01-27T01:24:00.567Z,41.90
2018-01-27T01:26:28.379Z,40.28
2018-01-27T01:28:56.899Z,40.67
2018-01-27T01:31:24.667Z,47.90
2018-01-27T01:33:52.470Z,38.92
2018-01-27T01:36:20.225Z,41.60
2018-01-27T01:38:47.987Z,42.08
2018-01-27T01:41:15.785Z,42.33
2018-01-27T01:43:49.115Z,42.75
2018-01-27T01:46:16.914Z,45.17
2018-01-27T01:48:44.665Z,42.17
2018-01-27T01:51:12.419Z,38.17
2018-01-27T01:53:40.221Z,37.38
2018-01-27T01:56:07.975Z,40.28
2018-01-27T01:58:36.489Z,39.92
2018-01-27T02:01:04.301Z,41.83
2018-01-27T02:03:32.826Z,40.33
2018-01-27T02:06:00.579Z,35.30
2018-01-27T02:08:28.599Z,40.10
2018-01-27T02:10:56.362Z,39.78
2018-01-27T02:13:24.113Z,38.08
2018-01-27T02:15:51.921Z,40.17
2018-01-27T02:18:19.666Z,38.80
2018-01-27T02:20:47.412Z,40.53
2018-01-27T02:23:15.217Z,37.80
2018-01-27T02:25:42.967Z,37.08
2018-01-27T02:28:10.735Z,39.70
2018-01-27T02:30:38.534Z,40.63
2018-01-27T02:33:06.281Z,38.88
2018-01-27T02:35:34.034Z,40.45
2018-01-27T02:38:01.869Z,41.35
2018-01-27T02:40:30.387Z,40.90
2018-01-27T02:42:58.135Z,42.25
2018-01-27T02:45:25.934Z,39.90
2018-01-27T02:47:53.701Z,42.03
2018-01-27T02:50:21.454Z,39.75
2018-01-27T02:52:50.065Z,38.25
2018-01-27T02:55:18.581Z,40.67
2018-01-27T02:57:46.327Z,39.38
2018-01-27T03:00:14.138Z,41.15
2018-01-27T03:02:41.888Z,39.50
2018-01-27T03:05:09.637Z,39.72
2018-01-27T03:07:37.448Z,40.15
2018-01-27T03:10:05.199Z,40.35
2018-01-27T03:12:32.954Z,39.08
2018-01-27T03:15:00.767Z,44.08
2018-01-27T03:17:28.528Z,40.78
2018-01-27T03:19:56.314Z,41.70
2018-01-27T03:22:24.125Z,37.85
2018-01-27T03:24:51.885Z,40.63
2018-01-27T03:27:19.631Z,45.15
2018-01-27T03:29:47.431Z,39.90
2018-01-27T03:32:15.185Z,42.17
2018-01-27T03:34:43.700Z,39.72
2018-01-27T03:37:11.497Z,42.40
2018-01-27T03:39:39.249Z,43.25
2018-01-27T03:42:07.777Z,41.45
2018-01-27T03:44:35.589Z,41.00
2018-01-27T03:47:03.346Z,40.50
2018-01-27T03:49:31.114Z,36.33
2018-01-27T03:51:58.913Z,37.55
2018-01-27T03:54:27.426Z,37.75
2018-01-27T03:56:55.178Z,37.83
2018-01-27T03:59:22.982Z,39.30
2018-01-27T04:01:50.735Z,40.15
2018-01-27T04:04:18.490Z,41.75
2018-01-27T04:06:46.290Z,39.88
2018-01-27T04:09:14.047Z,39.10
2018-01-27T04:11:41.814Z,40.83
2018-01-27T04:14:10.388Z,42.00
2018-01-27T04:16:38.142Z,39.05
2018-01-27T04:19:05.889Z,40.72
2018-01-27T04:21:33.694Z,38.80
2018-01-27T04:24:02.228Z,43.17
2018-01-27T04:26:29.974Z,39.00
2018-01-27T04:28:57.875Z,44.40
2018-01-27T04:31:25.632Z,43.50
2018-01-27T04:33:53.406Z,46.25
2018-01-27T04:36:21.227Z,44.25
2018-01-27T04:38:48.982Z,42.95
2018-01-27T04:41:16.733Z,43.03
2018-01-27T04:43:44.543Z,42.30
2018-01-27T04:46:12.290Z,42.33
2018-01-27T04:48:40.043Z,42.92
2018-01-27T04:51:07.842Z,50.12
2018-01-27T04:53:35.593Z,44.88
2018-01-27T04:56:03.350Z,40.85
2018-01-27T04:58:31.158Z,46.63
2018-01-27T05:00:58.910Z,48.05
2018-01-27T05:03:27.428Z,44.17
2018-01-27T05:05:55.231Z,44.60
2018-01-27T05:08:23.030Z,45.42
2018-01-27T05:10:50.784Z,51.53
2018-01-27T05:13:18.822Z,51.90
2018-01-27T05:15:46.577Z,48.17
2018-01-27T05:18:14.327Z,49.05
2018-01-27T05:20:42.179Z,50.05
2018-01-27T05:23:09.925Z,49.10
2018-01-27T05:25:37.674Z,47.05
2018-01-27T05:28:05.478Z,48.67
2018-01-27T05:30:33.230Z,52.00
2018-01-27T05:33:00.978Z,51.80
2018-01-27T05:35:28.779Z,49.65
2018-01-27T05:37:56.531Z,48.55
2018-01-27T05:40:24.278Z,52.38
2018-01-27T05:42:52.252Z,51.20
2018-01-27T05:45:20.006Z,52.72
2018-01-27T05:47:47.812Z,52.78
2018-01-27T05:50:15.622Z,51.37
2018-01-27T05:52:43.371Z,49.00
2018-01-27T05:55:11.119Z,50.22
2018-01-27T05:57:38.921Z,53.28
2018-01-27T06:00:06.677Z,50.00
2018-01-27T06:02:34.422Z,48.20
2018-01-27T06:05:02.226Z,44.45
2018-01-27T06:07:29.970Z,49.58
2018-01-27T06:09:57.732Z,51.15
2018-01-27T06:12:25.540Z,50.33
2018-01-27T06:14:53.299Z,48.30
2018-01-27T06:17:21.054Z,43.60
2018-01-27T06:19:49.627Z,49.35
2018-01-27T06:22:18.154Z,51.03
2018-01-27T06:24:45.907Z,46.88
2018-01-27T06:27:13.713Z,46.83
2018-01-27T06:29:41.471Z,46.97
2018-01-27T06:32:09.222Z,46.58
2018-01-27T06:34:37.030Z,46.10
2018-01-27T06:37:04.778Z,44.88
2018-01-27T06:39:33.291Z,45.90
2018-01-27T06:42:01.136Z,45.95
2018-01-27T06:44:28.899Z,45.33
2018-01-27T06:46:56.646Z,45.28
2018-01-27T06:49:25.222Z,41.20
2018-01-27T06:51:53.735Z,49.60
2018-01-27T06:54:21.483Z,42.45
2018-01-27T06:56:49.291Z,44.95
2018-01-27T06:59:17.053Z,47.58
2018-01-27T07:01:44.804Z,41.20
2018-01-27T07:04:12.616Z,42.22
2018-01-27T07:06:41.126Z,41.15
2018-01-27T07:09:08.878Z,42.58
2018-01-27T07:11:36.686Z,42.83
2018-01-27T07:14:04.443Z,39.60
2018-01-27T07:16:32.246Z,43.85
2018-01-27T07:19:00.813Z,42.58
2018-01-27T07:21:29.364Z,41.28
2018-01-27T07:23:57.118Z,43.87
2018-01-27T07:26:25.690Z,43.97
2018-01-27T07:28:53.447Z,40.40
2018-01-27T07:31:21.195Z,39.00
2018-01-27T07:33:49.010Z,44.58
2018-01-27T07:36:16.761Z,43.87
2018-01-27T07:38:44.516Z,44.90
2018-01-27T07:41:12.320Z,41.67
2018-01-27T07:43:40.835Z,41.00
2018-01-27T07:46:08.585Z,42.67
2018-01-27T07:48:36.399Z,43.60
2018-01-27T07:51:04.205Z,46.10
2018-01-27T07:53:31.955Z,40.88
2018-01-27T07:55:59.758Z,45.72
2018-01-27T07:58:27.506Z,49.85
2018-01-27T08:00:55.261Z,43.20
2018-01-27T08:03:23.063Z,50.40
2018-01-27T08:05:50.816Z,46.88
2018-01-27T08:08:18.572Z,53.87
2018-01-27T08:10:46.371Z,48.85
2018-01-27T08:13:14.894Z,48.40
2018-01-27T08:15:42.642Z,48.80
2018-01-27T08:18:10.451Z,44.67
2018-01-27T08:20:38.200Z,49.03
2018-01-27T08:23:05.953Z,52.35
2018-01-27T08:25:33.758Z,55.22
2018-01-27T08:28:01.514Z,53.03
2018-01-27T08:30:29.262Z,49.65
2018-01-27T08:32:57.675Z,47.35
2018-01-27T08:35:26.190Z,53.33
2018-01-27T08:37:53.939Z,49.10
2018-01-27T08:40:21.754Z,46.47
2018-01-27T08:42:49.527Z,51.70
2018-01-27T08:45:18.045Z,48.17
2018-01-27T08:47:45.846Z,44.63
2018-01-27T08:50:13.602Z,42.67
2018-01-27T08:52:41.383Z,38.28
2018-01-27T08:55:09.201Z,40.38
2018-01-27T08:57:36.974Z,42.97
2018-01-27T09:00:04.735Z,41.15
2018-01-27T09:02:32.544Z,39.70
2018-01-27T09:05:01.086Z,40.58
2018-01-27T09:07:29.606Z,37.28
2018-01-27T09:09:58.176Z,41.17
2018-01-27T09:12:25.926Z,40.92
2018-01-27T09:14:53.724Z,39.50
2018-01-27T09:17:22.307Z,38.33
2018-01-27T09:19:50.075Z,36.35
2018-01-27T09:22:17.830Z,38.83
2018-01-27T09:24:45.634Z,51.22
2018-01-27T09:27:13.417Z,85.60
2018-01-27T09:29:41.166Z,61.55
2018-01-27T09:32:08.970Z,45.20
2018-01-27T09:34:37.482Z,38.67
2018-01-27T09:37:05.227Z,39.25
2018-01-27T09:39:33.054Z,40.92
2018-01-27T09:42:00.802Z,35.20
2018-01-27T09:44:28.553Z,36.47
2018-01-27T09:46:56.355Z,33.70
2018-01-27T09:49:24.867Z,33.00
2018-01-27T09:51:52.618Z,27.67
2018-01-27T09:54:20.423Z,35.58
2018-01-27T09:56:48.175Z,35.10
2018-01-27T09:59:15.950Z,35.60
2018-01-27T10:01:43.759Z,37.08
2018-01-27T10:04:11.507Z,30.98
2018-01-27T10:06:40.026Z,35.83
2018-01-27T10:09:07.852Z,31.60
2018-01-27T10:11:36.367Z,27.58
2018-01-27T10:14:04.125Z,26.15
2018-01-27T10:16:31.933Z,24.35
2018-01-27T10:18:59.688Z,24.05
2018-01-27T10:21:27.468Z,26.10
2018-01-27T10:23:56.098Z,25.20
2018-01-27T10:26:23.850Z,24.95
2018-01-27T10:28:51.599Z,25.58
2018-01-27T10:31:19.398Z,26.12
2018-01-27T10:33:47.151Z,23.40
2018-01-27T10:36:14.904Z,22.27
2018-01-27T10:38:42.715Z,20.75
2018-01-27T10:41:10.467Z,19.80
2018-01-27T10:43:39.552Z,20.05
2018-01-27T10:46:07.529Z,22.55
2018-01-27T10:48:35.625Z,20.88
2018-01-27T10:51:04.144Z,21.58
2018-01-27T10:53:31.947Z,23.10
2018-01-27T10:55:59.697Z,23.12
2018-01-27T10:58:27.455Z,23.52
2018-01-27T11:00:55.338Z,23.92
2018-01-27T11:03:23.874Z,24.52
2018-01-27T11:05:51.630Z,24.85
2018-01-27T11:08:19.439Z,23.75
2018-01-27T11:10:47.310Z,21.77
2018-01-27T11:13:15.110Z,23.17
2018-01-27T11:15:42.910Z,22.02
2018-01-27T11:18:11.538Z,24.30
2018-01-27T11:20:40.051Z,22.52
2018-01-27T11:23:07.855Z,22.75
2018-01-27T11:25:36.421Z,19.87
2018-01-27T11:28:04.172Z,20.58
2018-01-27T11:30:31.980Z,22.00
2018-01-27T11:33:00.499Z,20.80
2018-01-27T11:35:28.254Z,20.05
2018-01-27T11:37:56.058Z,18.62
2018-01-27T11:40:24.306Z,19.23
2018-01-27T11:42:53.063Z,20.40
2018-01-27T11:45:20.899Z,21.92
2018-01-27T11:47:49.413Z,22.20
2018-01-27T11:50:17.171Z,20.60
2018-01-27T11:52:45.165Z,20.30
2018-01-27T11:55:12.946Z,16.77
2018-01-27T11:57:40.710Z,19.85
2018-01-27T12:00:08.534Z,22.27
2018-01-27T12:02:36.299Z,20.58
2018-01-27T12:05:04.071Z,23.27
2018-01-27T12:07:31.884Z,21.67
2018-01-27T12:10:00.432Z,23.42
2018-01-27T12:12:28.241Z,22.80
2018-01-27T12:14:56.054Z,20.40
2018-01-27T12:17:23.811Z,18.90
2018-01-27T12:19:51.571Z,19.70
2018-01-27T12:22:19.398Z,23.52
2018-01-27T12:24:47.207Z,18.48
2018-01-27T12:27:14.967Z,19.15
2018-01-27T12:29:42.767Z,23.20
2018-01-27T12:32:10.526Z,24.33
2018-01-27T12:34:39.049Z,18.27
2018-01-27T12:37:06.898Z,19.60
2018-01-27T12:39:34.693Z,19.83
2018-01-27T12:42:02.462Z,19.85
2018-01-27T12:44:30.420Z,21.62
2018-01-27T12:46:58.372Z,22.13
2018-01-27T12:49:26.226Z,21.27
2018-01-27T12:51:54.052Z,20.75
2018-01-27T12:54:22.856Z,19.55
2018-01-27T12:56:50.650Z,20.33
2018-01-27T12:59:18.467Z,18.05
2018-01-27T13:01:46.225Z,19.83
2018-01-27T13:04:15.089Z,19.45
2018-01-27T13:06:42.970Z,19.00
2018-01-27T13:09:11.491Z,20.08
2018-01-27T13:11:39.246Z,20.05
2018-01-27T13:14:07.138Z,18.15
2018-01-27T13:16:34.922Z,18.60
2018-01-27T13:19:02.772Z,17.15
2018-01-27T13:21:31.032Z,19.17
2018-01-27T13:23:58.859Z,18.62
2018-01-27T13:26:26.639Z,19.02
2018-01-27T13:28:54.467Z,21.60
2018-01-27T13:31:22.977Z,19.60
2018-01-27T13:33:50.726Z,22.10
2018-01-27T13:36:18.762Z,22.62
2018-01-27T13:38:46.548Z,23.05
2018-01-27T13:41:14.308Z,30.17
2018-01-27T13:43:42.120Z,25.37
2018-01-27T13:46:09.887Z,25.05
2018-01-27T13:48:37.678Z,23.38
2018-01-27T13:51:06.251Z,20.60
2018-01-27T13:53:34.008Z,22.67
2018-01-27T13:56:01.777Z,26.33
2018-01-27T13:58:29.595Z,24.80
2018-01-27T14:00:57.367Z,21.27
2018-01-27T14:03:25.147Z,22.60
2018-01-27T14:05:52.950Z,22.20
2018-01-27T14:08:20.922Z,23.75
2018-01-27T14:10:48.671Z,23.92
2018-01-27T14:13:17.251Z,24.90
2018-01-27T14:15:45.805Z,25.67
2018-01-27T14:18:13.562Z,25.83
2018-01-27T14:20:41.367Z,21.87
2018-01-27T14:23:09.126Z,23.48
2018-01-27T14:25:36.888Z,23.23
2018-01-27T14:28:04.694Z,21.95
2018-01-27T14:30:32.449Z,22.77
2018-01-27T14:33:00.207Z,23.85
2018-01-27T14:35:28.012Z,21.52
2018-01-27T14:37:55.768Z,22.10
2018-01-27T14:40:23.510Z,24.35
2018-01-27T14:42:51.566Z,22.05
2018-01-27T14:45:19.342Z,23.12
2018-01-27T14:47:47.103Z,25.58
2018-01-27T14:50:14.903Z,22.55
2018-01-27T14:52:43.424Z,26.30
2018-01-27T14:55:11.205Z,27.77
2018-01-27T14:57:39.776Z,26.17
2018-01-27T15:00:07.528Z,26.17
2018-01-27T15:02:35.276Z,25.92
2018-01-27T15:05:03.078Z,27.23
2018-01-27T15:07:30.825Z,26.92
2018-01-27T15:09:58.582Z,29.12
2018-01-27T15:12:26.388Z,30.05
2018-01-27T15:14:54.911Z,31.65
2018-01-27T15:17:22.686Z,31.40
2018-01-27T15:19:50.495Z,32.10
2018-01-27T15:22:19.007Z,30.73
2018-01-27T15:24:46.792Z,33.60
2018-01-27T15:27:14.599Z,30.02
2018-01-27T15:29:43.287Z,30.58
2018-01-27T15:32:11.156Z,25.73
2018-01-27T15:34:39.035Z,25.65
2018-01-27T15:37:06.803Z,25.88
2018-01-27T15:39:34.562Z,24.35
2018-01-27T15:42:02.368Z,28.38
2018-01-27T15:44:30.117Z,24.10
2018-01-27T15:46:58.096Z,26.20
2018-01-27T15:49:25.902Z,26.23
2018-01-27T15:51:53.649Z,23.20
2018-01-27T15:54:22.161Z,24.12
2018-01-27T15:56:49.971Z,25.20
2018-01-27T15:59:17.723Z,24.42
2018-01-27T16:01:45.471Z,25.75
2018-01-27T16:04:13.370Z,25.55
2018-01-27T16:06:41.918Z,26.85
2018-01-27T16:09:11.002Z,27.65
2018-01-27T16:11:40.499Z,27.67
2018-01-27T16:14:08.359Z,29.23
2018-01-27T16:16:36.421Z,29.35
2018-01-27T16:19:04.267Z,30.33
2018-01-27T16:21:32.033Z,33.55
2018-01-27T16:23:59.821Z,32.53
2018-01-27T16:26:27.660Z,35.10
2018-01-27T16:28:55.418Z,30.83
2018-01-27T16:31:24.171Z,31.87
2018-01-27T16:33:52.782Z,30.15
2018-01-27T16:36:20.571Z,28.42
2018-01-27T16:38:48.378Z,28.27
2018-01-27T16:41:16.198Z,29.48
2018-01-27T16:43:43.966Z,29.05
2018-01-27T16:46:11.830Z,26.15
2018-01-27T16:48:39.674Z,27.17
2018-01-27T16:51:08.309Z,30.12
2018-01-27T16:53:36.968Z,31.00
2018-01-27T16:56:04.807Z,36.03
2018-01-27T16:58:32.578Z,39.53
2018-01-27T17:01:00.327Z,41.17
2018-01-27T17:03:28.143Z,38.83
2018-01-27T17:05:55.891Z,35.10
2018-01-27T17:08:23.643Z,38.15
2018-01-27T17:10:51.452Z,36.97
2018-01-27T17:13:19.971Z,35.20
2018-01-27T17:15:47.728Z,32.88
2018-01-27T17:18:15.617Z,32.13
2018-01-27T17:20:43.374Z,30.20
2018-01-27T17:23:11.126Z,34.50
2018-01-27T17:25:39.693Z,34.22
2018-01-27T17:28:07.437Z,31.55
2018-01-27T17:30:35.197Z,34.67
2018-01-27T17:33:03.023Z,34.55
2018-01-27T17:35:30.776Z,34.90
2018-01-27T17:37:58.524Z,37.00
2018-01-27T17:40:26.330Z,35.35
2018-01-27T17:42:54.847Z,36.70
2018-01-27T17:45:22.627Z,37.72
2018-01-27T17:47:50.439Z,40.70
2018-01-27T17:50:18.952Z,41.00
2018-01-27T17:52:46.702Z,42.25
2018-01-27T17:55:14.502Z,45.83
2018-01-27T17:57:42.251Z,44.03
2018-01-27T18:00:10.008Z,43.70
2018-01-27T18:02:37.819Z,42.08
2018-01-27T18:05:06.339Z,45.30
2018-01-27T18:07:34.091Z,43.95
2018-01-27T18:10:01.955Z,41.95
2018-01-27T18:12:29.707Z,43.78
2018-01-27T18:14:57.472Z,52.00
2018-01-27T18:17:25.283Z,50.47
2018-01-27T18:19:53.039Z,52.90
2018-01-27T18:22:20.783Z,53.22
2018-01-27T18:24:48.623Z,51.08
2018-01-27T18:27:16.371Z,51.28
2018-01-27T18:29:44.118Z,47.13
2018-01-27T18:32:12.693Z,42.22
2018-01-27T18:34:41.256Z,38.70
2018-01-27T18:37:09.127Z,41.25
2018-01-27T18:39:36.931Z,44.88
2018-01-27T18:42:04.695Z,51.00
2018-01-27T18:44:32.595Z,45.50
2018-01-27T18:47:00.402Z,45.08
2018-01-27T18:49:28.978Z,45.22
2018-01-27T18:51:57.489Z,42.38
2018-01-27T18:54:25.308Z,44.15
2018-01-27T18:56:53.070Z,48.20
2018-01-27T18:59:20.819Z,44.05
2018-01-27T19:01:48.622Z,43.47
2018-01-27T19:04:16.380Z,44.20
2018-01-27T19:06:44.899Z,42.70
2018-01-27T19:09:12.705Z,40.95
2018-01-27T19:11:41.224Z,40.88
2018-01-27T19:14:08.972Z,40.70
2018-01-27T19:16:36.783Z,46.20
2018-01-27T19:19:04.538Z,41.53
2018-01-27T19:21:32.350Z,40.10
2018-01-27T19:24:01.097Z,38.65
2018-01-27T19:26:28.871Z,41.03
2018-01-27T19:28:56.622Z,39.20
2018-01-27T19:31:24.434Z,39.63
2018-01-27T19:33:52.182Z,38.75
2018-01-27T19:36:20.693Z,40.38
2018-01-27T19:38:48.502Z,39.60
2018-01-27T19:41:16.260Z,42.05
2018-01-27T19:43:44.009Z,41.50
2018-01-27T19:46:11.811Z,40.10
2018-01-27T19:48:40.336Z,41.37
2018-01-27T19:51:08.085Z,40.50
2018-01-27T19:53:35.892Z,38.75
2018-01-27T19:56:03.655Z,40.95
2018-01-27T19:58:31.401Z,42.97
2018-01-27T20:00:59.217Z,43.20
2018-01-27T20:03:26.961Z,43.80
2018-01-27T20:05:55.475Z,42.53
2018-01-27T20:08:23.286Z,44.58
2018-01-27T20:10:51.802Z,41.00
2018-01-27T20:13:19.561Z,45.85
2018-01-27T20:15:47.366Z,45.50
2018-01-27T20:18:15.154Z,44.80
2018-01-27T20:20:43.697Z,43.40
2018-01-27T20:23:11.508Z,44.90
2018-01-27T20:25:40.028Z,40.20
2018-01-27T20:28:07.834Z,46.78
2018-01-27T20:30:35.648Z,43.25
2018-01-27T20:33:03.432Z,45.75
2018-01-27T20:35:31.225Z,45.12
2018-01-27T20:37:59.801Z,45.58
2018-01-27T20:40:27.553Z,46.80
2018-01-27T20:42:55.302Z,49.38
2018-01-27T20:45:23.240Z,53.97
2018-01-27T20:47:51.007Z,59.42
2018-01-27T20:50:18.777Z,61.25
2018-01-27T20:52:46.670Z,55.97
2018-01-27T20:55:14.440Z,56.90
2018-01-27T20:57:42.967Z,58.63
2018-01-27T21:00:10.785Z,57.42
2018-01-27T21:02:38.539Z,61.28
2018-01-27T21:05:06.312Z,56.58
2018-01-27T21:07:34.907Z,56.95
2018-01-27T21:10:03.461Z,59.33
2018-01-27T21:12:31.218Z,58.60
2018-01-27T21:14:59.031Z,58.85
2018-01-27T21:17:26.791Z,56.78
2018-01-27T21:19:54.575Z,58.60
2018-01-27T21:22:22.486Z,58.13
2018-01-27T21:24:51.004Z,58.38
2018-01-27T21:27:18.787Z,56.58
2018-01-27T21:29:46.636Z,57.88
2018-01-27T21:32:14.431Z,58.03
2018-01-27T21:34:42.978Z,59.05
2018-01-27T21:37:10.793Z,58.30
2018-01-27T21:39:38.546Z,62.62
2018-01-27T21:42:06.306Z,61.72
2018-01-27T21:44:34.118Z,58.63
2018-01-27T21:47:01.876Z,66.18
2018-01-27T21:49:29.635Z,63.45
2018-01-27T21:51:57.446Z,61.42
2018-01-27T21:54:25.196Z,59.83
2018-01-27T21:56:52.946Z,57.47
2018-01-27T21:59:20.802Z,58.40
2018-01-27T22:01:49.270Z,59.17
2018-01-27T22:04:17.039Z,57.97
2018-01-27T22:06:44.851Z,63.87
2018-01-27T22:09:12.602Z,59.42
2018-01-27T22:11:40.408Z,60.40
2018-01-27T22:14:08.262Z,62.58
2018-01-27T22:16:36.778Z,58.10
2018-01-27T22:19:04.539Z,63.00
2018-01-27T22:21:32.341Z,63.22
2018-01-27T22:24:00.104Z,65.60
2018-01-27T22:26:29.536Z,66.57
2018-01-27T22:28:57.348Z,66.15
2018-01-27T22:31:25.107Z,66.15
2018-01-27T22:33:52.871Z,69.53
2018-01-27T22:36:20.679Z,68.05
2018-01-27T22:38:48.431Z,67.25
2018-01-27T22:41:16.953Z,67.15
2018-01-27T22:43:45.534Z,68.43
2018-01-27T22:46:13.287Z,63.70
2018-01-27T22:48:41.038Z,61.25
2018-01-27T22:51:08.938Z,60.08
2018-01-27T22:53:37.110Z,63.00
2018-01-27T22:56:04.855Z,55.83
2018-01-27T22:58:33.352Z,54.92
2018-01-27T23:01:06.682Z,57.60
2018-01-27T23:03:35.247Z,56.08
2018-01-27T23:06:03.006Z,56.28
2018-01-27T23:08:30.763Z,51.72
2018-01-27T23:10:58.568Z,50.25
2018-01-27T23:13:26.330Z,51.08
2018-01-27T23:15:54.095Z,51.55
2018-01-27T23:18:21.903Z,52.88
2018-01-27T23:20:50.423Z,52.22
2018-01-27T23:23:18.227Z,49.20
2018-01-27T23:25:46.040Z,48.92
2018-01-27T23:28:14.701Z,52.15
2018-01-27T23:30:42.511Z,51.22
2018-01-27T23:33:10.314Z,55.28
2018-01-27T23:35:38.079Z,45.30
2018-01-27T23:38:05.840Z,52.25
2018-01-27T23:40:33.646Z,50.38
2018-01-27T23:43:01.412Z,52.62
2018-01-27T23:45:29.167Z,49.80
2018-01-27T23:47:57.004Z,50.15
2018-01-27T23:50:24.758Z,49.92
2018-01-27T23:52:52.506Z,50.88
2018-01-27T23:55:20.480Z,53.22
2018-01-27T23:57:48.245Z,55.65
